Time;durP1;ratioP1;P1;durP2;ratioP2;P2;SDS_P1;SDS_P2;PMS_P1;PMS_P2;Temp;Humidity;BMP_temperature;BMP_pressure;BME280_temperature;BME280_humidity;BME280_pressure;Samples;Min_cycle;Max_cycle;Signal;HPM_P1;HPM_P2
2023/05/14 00:00:21;;;;;;;11.40;10.18;;;;;;;7.54;100.00;92956.19;2559635;23;20001;-83
2023/05/14 00:01:29;;;;;;;11.52;10.27;;;;;;;7.52;100.00;92955.84;2557895;23;20001;-82
2023/05/14 00:02:38;;;;;;;13.73;11.10;;;;;;;7.57;100.00;92950.06;2547921;23;20006;-82
2023/05/14 00:03:46;;;;;;;13.13;11.68;;;;;;;7.56;100.00;92951.22;2546800;23;20009;-81
2023/05/14 00:04:55;;;;;;;12.30;11.00;;;;;;;7.62;100.00;92953.44;2549238;23;20013;-82
2023/05/14 00:06:02;;;;;;;14.55;10.68;;;;;;;7.63;100.00;92950.38;2558120;23;20095;-83
2023/05/14 00:07:10;;;;;;;;;;;;;;;7.61;100.00;92944.72;2538769;23;20025;-82
2023/05/14 00:08:20;;;;;;;12.63;10.75;;;;;;;7.62;100.00;92956.09;2546899;23;20000;-81
2023/05/14 00:09:30;;;;;;;13.18;10.77;;;;;;;7.61;100.00;92944.72;2546857;23;20444;-82
2023/05/14 00:10:36;;;;;;;;;;;;;;;7.60;100.00;92948.53;2537678;23;20002;-84
2023/05/14 00:11:45;;;;;;;20.60;12.13;;;;;;;7.63;100.00;92944.28;2547784;23;20229;-81
2023/05/14 00:12:55;;;;;;;17.25;10.90;;;;;;;7.63;100.00;92941.63;2560109;23;20052;-83
2023/05/14 00:14:05;;;;;;;14.90;11.63;;;;;;;7.60;100.00;92951.19;2547611;23;20064;-83
2023/05/14 00:15:12;;;;;;;13.43;11.48;;;;;;;7.57;100.00;92947.41;2560047;23;20004;-84
2023/05/14 00:16:20;;;;;;;14.43;12.35;;;;;;;7.57;100.00;92931.44;2570633;23;20064;-82
2023/05/14 00:17:29;;;;;;;18.17;12.32;;;;;;;7.61;100.00;92930.66;2557922;23;20626;-81
2023/05/14 00:18:37;;;;;;;18.13;12.55;;;;;;;7.60;100.00;92937.88;2537117;23;20061;-83
2023/05/14 00:19:45;;;;;;;13.77;11.85;;;;;;;7.64;100.00;92935.94;2547323;23;20432;-82
2023/05/14 00:20:54;;;;;;;13.30;11.88;;;;;;;7.65;100.00;92942.00;2559389;23;20031;-83
2023/05/14 00:22:01;;;;;;;17.25;12.40;;;;;;;7.61;100.00;92942.03;2559242;23;20376;-83
2023/05/14 00:23:09;;;;;;;13.73;11.48;;;;;;;7.70;100.00;92936.97;2558657;23;20613;-81
2023/05/14 00:24:18;;;;;;;14.15;12.57;;;;;;;7.73;100.00;92935.44;2558397;23;20008;-84
2023/05/14 00:25:28;;;;;;;13.43;12.05;;;;;;;7.71;100.00;92935.06;2547430;23;20001;-84
2023/05/14 00:26:39;;;;;;;13.85;12.07;;;;;;;7.70;100.00;92930.91;2536862;23;20006;-81
2023/05/14 00:27:48;;;;;;;15.88;12.05;;;;;;;7.69;100.00;92937.38;2547799;23;20009;-81
2023/05/14 00:28:56;;;;;;;16.05;12.13;;;;;;;7.65;100.00;92932.13;2536815;23;20006;-81
2023/05/14 00:30:13;;;;;;;14.90;13.30;;;;;;;7.63;100.00;92941.63;2535769;23;20410;-81
2023/05/14 00:31:22;;;;;;;15.80;12.50;;;;;;;7.61;100.00;92935.97;2548719;23;20016;-80
2023/05/14 00:32:30;;;;;;;16.65;11.85;;;;;;;7.65;100.00;92939.34;2548452;23;20005;-81
2023/05/14 00:33:36;;;;;;;14.48;12.43;;;;;;;7.62;100.00;92932.16;2557412;23;20088;-83
2023/05/14 00:34:48;;;;;;;15.15;12.43;;;;;;;7.62;100.00;92932.91;2547188;23;20013;-82
2023/05/14 00:35:56;;;;;;;15.25;12.27;;;;;;;7.61;100.00;92930.66;2561597;23;20032;-81
2023/05/14 00:37:02;;;;;;;15.80;12.77;;;;;;;7.58;100.00;92932.19;2548183;23;20009;-83
2023/05/14 00:38:15;;;;;;;15.35;12.93;;;;;;;7.60;100.00;92929.91;2535856;23;20021;-82
2023/05/14 00:39:28;;;;;;;14.73;12.00;;;;;;;7.58;100.00;92932.19;2539368;23;20030;-82
2023/05/14 00:40:37;;;;;;;18.23;13.18;;;;;;;7.55;100.00;92933.75;2536636;23;20005;-82
2023/05/14 00:41:44;;;;;;;16.20;13.03;;;;;;;7.64;100.00;92922.63;2536650;23;20010;-83
2023/05/14 00:42:52;;;;;;;18.40;12.93;;;;;;;7.69;100.00;92926.75;2535514;23;20398;-81
2023/05/14 00:44:01;;;;;;;18.60;13.05;;;;;;;7.65;100.00;92924.13;2559331;23;20005;-83
2023/05/14 00:45:09;;;;;;;17.02;13.57;;;;;;;7.70;100.00;92920.28;2558075;23;20005;-83
2023/05/14 00:46:21;;;;;;;13.85;11.85;;;;;;;7.89;100.00;92911.63;2537311;23;20021;-81
2023/05/14 00:47:29;;;;;;;14.90;12.98;;;;;;;7.81;100.00;92907.53;2536273;23;20076;-82
2023/05/14 00:48:41;;;;;;;13.20;11.77;;;;;;;7.90;100.00;92909.69;2547044;23;20009;-83
2023/05/14 00:49:51;;;;;;;16.75;12.75;;;;;;;7.80;100.00;92914.03;2550677;23;20064;-82
2023/05/14 00:51:00;;;;;;;16.60;12.57;;;;;;;7.75;100.00;92919.81;2560499;23;20431;-81
2023/05/14 00:52:09;;;;;;;14.70;12.13;;;;;;;7.74;100.00;92920.97;2547379;23;20009;-82
2023/05/14 00:53:18;;;;;;;14.82;12.57;;;;;;;7.71;100.00;92913.78;2548752;23;20005;-81
2023/05/14 00:54:28;;;;;;;22.17;12.05;;;;;;;7.68;100.00;92912.69;2557580;23;20001;-82
2023/05/14 00:55:43;;;;;;;16.23;12.65;;;;;;;7.65;100.00;92905.50;2536900;23;20014;-82
2023/05/14 00:56:53;;;;;;;15.30;12.02;;;;;;;7.60;100.00;92908.63;2560882;23;20053;-82
2023/05/14 00:58:02;;;;;;;;;;;;;;;7.54;100.00;92910.97;2570906;23;19996;-82
2023/05/14 00:59:12;;;;;;;13.98;11.75;;;;;;;7.53;100.00;92911.38;2558735;23;19908;-82
2023/05/14 01:00:18;;;;;;;13.75;12.05;;;;;;;7.48;100.00;92899.28;2537085;23;20187;-83
2023/05/14 01:01:27;;;;;;;17.38;12.10;;;;;;;7.47;100.00;92905.75;2548032;23;20787;-80
2023/05/14 01:02:39;;;;;;;15.20;12.85;;;;;;;7.44;100.00;92906.56;2557812;23;20034;-84
2023/05/14 01:03:52;;;;;;;15.10;12.23;;;;;;;7.41;100.00;92901.28;2547886;23;20016;-82
2023/05/14 01:04:59;;;;;;;17.58;12.32;;;;;;;7.40;100.00;92905.09;2549908;23;20091;-82
2023/05/14 01:06:24;;;;;;;14.07;12.32;;;;;;;7.43;100.00;92909.63;2547092;23;20504;-83
2023/05/14 01:08:05;;;;;;;14.23;11.65;;;;;;;7.38;100.00;92910.81;2550188;23;20055;-82
2023/05/14 01:09:38;;;;;;;17.15;12.23;;;;;;;7.39;100.00;92906.25;2561380;23;20012;-83
2023/05/14 01:10:52;;;;;;;15.55;12.00;;;;;;;7.45;100.00;92907.31;2543198;23;20029;-82
2023/05/14 01:12:12;;;;;;;16.15;12.40;;;;;;;7.45;100.00;92915.28;2539916;23;20010;-81
2023/05/14 01:13:27;;;;;;;15.77;12.63;;;;;;;7.43;100.00;92905.06;2540572;23;20012;-83
2023/05/14 01:14:42;;;;;;;16.42;12.77;;;;;;;7.46;100.00;92906.13;2551318;23;20076;-82
2023/05/14 01:15:52;;;;;;;15.90;13.07;;;;;;;7.64;100.00;92901.34;2561918;23;20617;-83
2023/05/14 01:17:07;;;;;;;16.38;12.25;;;;;;;7.62;100.00;92900.22;2548616;23;20036;-81
2023/05/14 01:18:19;;;;;;;17.50;13.57;;;;;;;7.51;100.00;92895.06;2550050;23;20331;-81
2023/05/14 01:19:41;;;;;;;16.60;12.85;;;;;;;7.52;100.00;92897.31;2551532;23;20356;-81
2023/05/14 01:20:51;;;;;;;15.35;12.65;;;;;;;7.51;100.00;92903.06;2559255;23;20001;-83
2023/05/14 01:22:02;;;;;;;16.27;12.35;;;;;;;7.52;100.00;92896.56;2538137;23;20053;-82
2023/05/14 01:23:09;;;;;;;15.88;12.55;;;;;;;7.54;100.00;92897.66;2546949;23;20332;-83
2023/05/14 01:24:19;;;;;;;15.90;12.30;;;;;;;7.55;100.00;92896.53;2547970;23;20032;-82
2023/05/14 01:25:29;;;;;;;21.73;13.63;;;;;;;7.50;100.00;92896.97;2548639;23;20001;-82
2023/05/14 01:26:39;;;;;;;19.98;14.23;;;;;;;7.49;100.00;92898.13;2559682;23;20067;-81
2023/05/14 01:28:28;;;;;;;17.20;13.02;;;;;;;7.54;100.00;92892.34;2556687;23;20454;-82
2023/05/14 01:29:40;;;;;;;15.25;12.57;;;;;;;7.56;100.00;92898.03;2554814;23;20024;-81
2023/05/14 01:30:58;;;;;;;16.60;12.88;;;;;;;7.61;100.00;92896.81;2559704;23;20076;-81
2023/05/14 01:32:09;;;;;;;16.90;13.65;;;;;;;7.60;100.00;92891.91;2548994;23;20055;-82
2023/05/14 01:33:21;;;;;;;16.70;13.13;;;;;;;7.63;100.00;92896.41;2546423;23;20043;-83
2023/05/14 01:34:33;;;;;;;15.32;12.43;;;;;;;7.65;100.00;92886.88;2557716;23;20511;-82
2023/05/14 01:35:45;;;;;;;25.45;14.90;;;;;;;7.62;100.00;92882.38;2537099;23;20014;-83
2023/05/14 01:37:01;;;;;;;16.08;13.65;;;;;;;7.62;100.00;92887.69;2537251;23;20022;-81
2023/05/14 01:38:12;;;;;;;20.15;14.05;;;;;;;7.66;100.00;92888.38;2560499;23;20084;-81
2023/05/14 01:39:26;;;;;;;20.35;13.93;;;;;;;7.68;100.00;92887.97;2560845;23;20411;-82
2023/05/14 01:40:36;;;;;;;18.45;14.88;;;;;;;7.66;100.00;92890.31;2559019;23;20001;-82
2023/05/14 01:41:52;;;;;;;23.08;15.25;;;;;;;7.65;100.00;92883.47;2546454;23;20001;-84
2023/05/14 01:43:01;;;;;;;19.48;15.23;;;;;;;7.66;100.00;92883.06;2539451;23;20017;-81
2023/05/14 01:44:14;;;;;;;21.80;15.02;;;;;;;7.70;100.00;92885.69;2537461;23;20017;-81
2023/05/14 01:45:30;;;;;;;19.70;14.90;;;;;;;7.71;100.00;92889.84;2548462;23;20006;-81
2023/05/14 01:46:34;;;;;;;19.55;15.15;;;;;;;7.74;100.00;92886.38;2538703;23;20029;-82
2023/05/14 01:47:42;;;;;;;18.17;14.65;;;;;;;7.75;100.00;92888.63;2534389;23;20044;-82
2023/05/14 01:48:51;;;;;;;21.30;14.45;;;;;;;7.78;100.00;92876.44;2548113;23;20094;-82
2023/05/14 01:50:03;;;;;;;19.63;15.88;;;;;;;7.82;100.00;92882.47;2546673;23;20395;-82
2023/05/14 01:51:13;;;;;;;18.70;15.88;;;;;;;7.86;100.00;92891.16;2549314;23;20012;-82
2023/05/14 01:52:22;;;;;;;21.77;15.88;;;;;;;7.86;100.00;92885.06;2547011;23;20025;-82
2023/05/14 01:53:24;;;;;;;19.13;14.63;;;;;;;7.85;100.00;92886.22;2548793;23;20423;-83
2023/05/14 01:54:25;;;;;;;23.30;16.33;;;;;;;7.89;100.00;92882.34;2556751;23;20009;-81
2023/05/14 01:55:26;;;;;;;22.45;16.92;;;;;;;7.88;100.00;92886.16;2557005;23;20435;-83
2023/05/14 01:56:28;;;;;;;22.83;16.25;;;;;;;7.86;100.00;92883.16;2556417;23;20035;-81
2023/05/14 01:57:36;;;;;;;22.92;16.73;;;;;;;7.81;100.00;92886.25;2557336;23;20032;-82
2023/05/14 01:58:44;;;;;;;23.90;16.60;;;;;;;7.82;100.00;92885.88;2535384;23;20013;-82
2023/05/14 01:59:52;;;;;;;23.48;17.00;;;;;;;7.84;100.00;92888.13;2535691;23;20009;-81
2023/05/14 02:01:02;;;;;;;21.65;16.23;;;;;;;7.86;100.00;92885.81;2536851;23;20541;-81
2023/05/14 02:02:08;;;;;;;21.88;16.70;;;;;;;7.85;100.00;92886.97;2559595;23;20100;-81
2023/05/14 02:03:15;;;;;;;22.55;16.92;;;;;;;7.84;100.00;92882.81;2536619;23;20016;-81
2023/05/14 02:04:24;;;;;;;23.15;17.35;;;;;;;7.85;100.00;92886.97;2537351;23;20487;-81
2023/05/14 02:05:32;;;;;;;20.85;16.58;;;;;;;7.85;100.00;92892.28;2548691;23;20108;-83
2023/05/14 02:06:41;;;;;;;22.10;16.50;;;;;;;7.86;100.00;92888.50;2537861;23;20052;-81
2023/05/14 02:07:50;;;;;;;23.15;17.85;;;;;;;7.83;100.00;92889.28;2547936;23;20036;-84
2023/05/14 02:08:57;;;;;;;25.08;17.58;;;;;;;7.86;100.00;92879.72;2536732;23;20006;-82
2023/05/14 02:10:10;;;;;;;26.35;18.35;;;;;;;7.84;100.00;92882.81;2537167;23;20034;-83
2023/05/14 02:11:17;;;;;;;25.13;18.23;;;;;;;7.86;100.00;92880.50;2536333;23;20010;-83
2023/05/14 02:12:28;;;;;;;24.63;18.40;;;;;;;7.82;100.00;92877.16;2535365;23;20096;-83
2023/05/14 02:13:38;;;;;;;23.92;17.90;;;;;;;7.89;100.00;92879.69;2546163;23;20009;-81
2023/05/14 02:14:45;;;;;;;;;;;;;;;7.89;100.00;92879.69;2536863;23;20029;-80
2023/05/14 02:15:54;;;;;;;21.63;15.50;;;;;;;7.89;100.00;92869.03;2558618;23;19915;-83
2023/05/14 02:17:00;;;;;;;22.98;17.42;;;;;;;7.87;100.00;92879.34;2547520;23;20020;-83
2023/05/14 02:18:10;;;;;;;26.65;18.25;;;;;;;7.87;100.00;92879.34;2546949;23;20005;-82
2023/05/14 02:34:52;;;;;;;30.52;20.08;;;;;;;7.75;100.00;92885.22;2624032;22;19918;-81
2023/05/14 02:35:59;;;;;;;31.23;20.50;;;;;;;7.77;100.00;92878.34;2598134;22;20015;-83
2023/05/14 02:37:06;;;;;;;30.25;20.95;;;;;;;7.79;100.00;92876.03;2587884;22;20000;-83
2023/05/14 02:38:16;;;;;;;32.42;21.70;;;;;;;7.75;100.00;92880.66;2599405;22;20037;-82
2023/05/14 02:39:25;;;;;;;31.15;21.45;;;;;;;7.79;100.00;92880.59;2587527;22;20047;-85
2023/05/14 02:40:33;;;;;;;31.60;20.92;;;;;;;7.79;100.00;92878.69;2586975;22;20012;-85
2023/05/14 02:41:42;;;;;;;29.30;21.10;;;;;;;7.82;100.00;92880.56;2575730;22;20011;-86
2023/05/14 02:42:50;;;;;;;28.30;20.60;;;;;;;7.77;100.00;92877.59;2588631;22;20407;-86
2023/05/14 02:43:59;;;;;;;31.27;21.60;;;;;;;7.79;100.00;92880.59;2587060;22;19999;-83
2023/05/14 02:45:09;;;;;;;34.58;21.65;;;;;;;7.79;100.00;92877.94;2587099;22;20335;-84
2023/05/14 02:46:17;;;;;;;30.35;21.00;;;;;;;7.78;100.00;92881.75;2576574;22;20004;-85
2023/05/14 02:47:26;;;;;;;33.08;21.25;;;;;;;7.81;100.00;92880.94;2586516;22;20014;-85
2023/05/14 02:48:34;;;;;;;30.15;20.33;;;;;;;7.81;100.00;92881.72;2588634;22;20438;-84
2023/05/14 02:49:41;;;;;;;28.77;20.38;;;;;;;7.76;100.00;92882.16;2586996;22;20004;-83
2023/05/14 02:50:54;;;;;;;28.75;20.48;;;;;;;7.76;100.00;92881.41;2575281;22;20012;-84
2023/05/14 02:52:02;;;;;;;27.80;19.83;;;;;;;7.80;100.00;92868.81;2577508;22;20082;-86
2023/05/14 02:53:09;;;;;;;29.65;20.33;;;;;;;7.81;100.00;92878.28;2575650;22;20008;-85
2023/05/14 02:54:17;;;;;;;27.70;20.52;;;;;;;7.83;100.00;92874.06;2588029;22;20129;-86
2023/05/14 02:55:40;;;;;;;30.88;20.13;;;;;;;7.81;100.00;92875.63;2586721;22;20000;-83
2023/05/14 02:56:48;;;;;;;26.77;19.60;;;;;;;7.81;100.00;92870.31;2607443;22;20330;-84
2023/05/14 02:57:58;;;;;;;29.67;19.98;;;;;;;7.81;100.00;92872.97;2597708;22;20072;-85
2023/05/14 02:59:04;;;;;;;;;;;;;;;7.82;100.00;92869.91;2587814;22;20050;-84
2023/05/14 03:00:11;;;;;;;26.83;19.10;;;;;;;7.81;100.00;92872.97;2586081;22;19903;-84
2023/05/14 03:01:20;;;;;;;25.95;19.33;;;;;;;7.81;100.00;92880.94;2575321;22;20139;-84
2023/05/14 03:02:30;;;;;;;29.52;18.80;;;;;;;7.84;100.00;92874.81;2586679;22;20010;-84
2023/05/14 03:03:37;;;;;;;26.25;19.02;;;;;;;7.85;100.00;92881.63;2576270;22;20004;-85
2023/05/14 03:04:46;;;;;;;22.90;17.75;;;;;;;7.89;100.00;92879.69;2587538;22;20007;-82
2023/05/14 03:05:55;;;;;;;28.75;19.35;;;;;;;7.84;100.00;92877.47;2599588;22;20430;-83
2023/05/14 03:07:06;;;;;;;28.45;19.58;;;;;;;7.78;100.00;92876.44;2597596;22;20662;-83
2023/05/14 03:08:15;;;;;;;26.90;19.10;;;;;;;7.82;100.00;92872.56;2587474;22;20007;-86
2023/05/14 03:09:23;;;;;;;25.25;19.30;;;;;;;7.83;100.00;92873.31;2575863;22;20042;-88
2023/05/14 03:10:32;;;;;;;27.05;19.80;;;;;;;7.80;100.00;92871.47;2588405;22;20571;-86
2023/05/14 03:11:42;;;;;;;27.08;19.48;;;;;;;7.79;100.00;92875.28;2586780;22;20629;-85
2023/05/14 03:12:54;;;;;;;27.35;19.95;;;;;;;7.79;100.00;92865.38;2599957;22;20003;-85
2023/05/14 03:14:01;;;;;;;27.77;19.55;;;;;;;7.82;100.00;92869.16;2587302;22;20004;-86
2023/05/14 03:15:10;;;;;;;26.90;18.65;;;;;;;7.81;100.00;92863.09;2586472;22;20419;-86
2023/05/14 03:16:20;;;;;;;24.85;18.65;;;;;;;7.76;100.00;92866.19;2575688;22;20309;-87
2023/05/14 03:17:31;;;;;;;28.95;19.73;;;;;;;7.76;100.00;92862.78;2576113;22;20007;-85
2023/05/14 03:18:39;;;;;;;26.80;19.83;;;;;;;7.76;100.00;92866.19;2576589;22;20012;-87
2023/05/14 03:19:47;;;;;;;28.63;19.67;;;;;;;7.76;100.00;92862.78;2575386;22;20036;-85
2023/05/14 03:20:54;;;;;;;23.92;17.90;;;;;;;7.85;100.00;92868.34;2575749;22;20004;-85
2023/05/14 03:22:03;;;;;;;26.23;18.50;;;;;;;7.89;100.00;92862.97;2574812;22;20016;-84
2023/05/14 03:23:08;;;;;;;27.02;18.48;;;;;;;7.89;100.00;92861.06;2575619;22;20004;-85
2023/05/14 03:24:15;;;;;;;22.90;18.08;;;;;;;8.02;100.00;92861.22;2574150;22;20012;-85
2023/05/14 03:25:23;;;;;;;24.20;18.02;;;;;;;8.08;100.00;92857.72;2586285;22;20690;-86
2023/05/14 03:26:32;;;;;;;23.45;18.15;;;;;;;8.10;100.00;92861.88;2575072;22;20012;-84
2023/05/14 03:27:44;;;;;;;22.00;17.38;;;;;;;8.06;100.00;92852.03;2576257;22;20004;-86
2023/05/14 03:28:55;;;;;;;23.33;17.45;;;;;;;7.92;100.00;92854.94;2576985;22;20004;-87
2023/05/14 03:30:03;;;;;;;23.98;18.38;;;;;;;7.90;100.00;92865.25;2587215;22;20004;-85
2023/05/14 03:31:11;;;;;;;22.00;16.83;;;;;;;7.85;100.00;92860.34;2603298;22;20637;-86
2023/05/14 03:32:20;;;;;;;25.48;17.42;;;;;;;7.79;100.00;92865.38;2609109;22;20006;-86
2023/05/14 03:33:28;;;;;;;23.38;17.48;;;;;;;7.76;100.00;92854.78;2596409;22;20012;-87
2023/05/14 03:34:37;;;;;;;23.90;17.00;;;;;;;7.73;100.00;92853.72;2598070;22;20012;-87
2023/05/14 03:35:44;;;;;;;22.30;17.07;;;;;;;7.76;100.00;92858.22;2596918;22;20328;-87
2023/05/14 03:36:53;;;;;;;25.45;18.67;;;;;;;7.76;100.00;92854.78;2584865;22;20403;-86
2023/05/14 03:38:01;;;;;;;24.25;18.50;;;;;;;7.72;100.00;92857.50;2598097;22;20449;-87
2023/05/14 03:39:09;;;;;;;21.20;16.88;;;;;;;7.76;100.00;92857.47;2596508;22;20578;-87
2023/05/14 03:40:16;;;;;;;21.67;17.73;;;;;;;7.75;100.00;92854.03;2585118;22;20232;-87
2023/05/14 03:41:25;;;;;;;24.80;16.50;;;;;;;7.74;100.00;92854.47;2595933;22;20008;-84
2023/05/14 03:42:33;;;;;;;22.50;17.00;;;;;;;7.71;100.00;92855.25;2598031;22;20003;-84
2023/05/14 03:43:42;;;;;;;21.70;17.13;;;;;;;7.71;100.00;92855.25;2596283;22;20011;-83
2023/05/14 03:44:56;;;;;;;21.83;16.73;;;;;;;7.72;100.00;92857.50;2596622;22;19999;-85
2023/05/14 03:46:06;;;;;;;19.42;16.00;;;;;;;7.70;100.00;92851.84;2600466;22;20004;-84
2023/05/14 03:47:13;;;;;;;23.55;16.20;;;;;;;7.69;100.00;92862.91;2596729;22;20031;-83
2023/05/14 03:48:24;;;;;;;22.13;16.40;;;;;;;7.68;100.00;92856.84;2584291;22;20015;-84
2023/05/14 03:49:32;;;;;;;22.02;16.83;;;;;;;7.69;100.00;92850.34;2599517;22;20012;-88
2023/05/14 03:50:43;;;;;;;21.77;16.27;;;;;;;7.70;100.00;92848.44;2607688;22;19999;-85
2023/05/14 03:51:52;;;;;;;23.88;17.13;;;;;;;7.68;100.00;92848.06;2599251;22;20007;-85
2023/05/14 03:52:55;;;;;;;21.45;16.67;;;;;;;7.68;100.00;92861.38;2596778;22;20014;-85
2023/05/14 03:54:03;;;;;;;21.00;17.15;;;;;;;7.68;100.00;92851.50;2582848;22;20084;-85
2023/05/14 03:55:15;;;;;;;21.35;16.92;;;;;;;7.68;100.00;92850.75;2597972;22;20124;-88
2023/05/14 03:56:20;;;;;;;21.83;16.83;;;;;;;7.69;100.00;92861.00;2607240;22;20045;-85
2023/05/14 03:57:30;;;;;;;20.00;15.98;;;;;;;7.69;100.00;92849.59;2595651;22;20008;-87
2023/05/14 03:58:43;;;;;;;24.48;16.98;;;;;;;7.70;100.00;92867.06;2585315;22;20004;-85
2023/05/14 03:59:57;;;;;;;22.55;16.90;;;;;;;7.67;100.00;92851.91;2600260;22;20387;-85
2023/05/14 04:01:06;;;;;;;21.17;16.48;;;;;;;7.70;100.00;92862.50;2597462;22;20008;-86
2023/05/14 04:02:19;;;;;;;25.55;16.40;;;;;;;7.68;100.00;92859.50;2596541;22;20512;-85
2023/05/14 04:03:28;;;;;;;21.17;17.00;;;;;;;7.68;100.00;92861.38;2587313;22;20428;-85
2023/05/14 04:04:41;;;;;;;19.83;16.02;;;;;;;7.72;100.00;92859.41;2596566;22;20411;-87
2023/05/14 04:05:53;;;;;;;22.40;16.08;;;;;;;7.71;100.00;92855.25;2587211;22;20039;-86
2023/05/14 04:07:02;;;;;;;22.35;16.38;;;;;;;7.70;100.00;92859.09;2587183;22;20016;-86
2023/05/14 04:08:11;;;;;;;23.10;17.77;;;;;;;7.71;100.00;92855.25;2598601;22;20611;-87
2023/05/14 04:09:20;;;;;;;22.00;17.25;;;;;;;7.73;100.00;92861.69;2596199;22;20046;-85
2023/05/14 04:10:29;;;;;;;22.08;17.05;;;;;;;7.76;100.00;92860.13;2585209;22;20083;-85
2023/05/14 04:11:38;;;;;;;21.83;16.55;;;;;;;7.78;100.00;92853.25;2585225;22;20031;-85
2023/05/14 04:12:47;;;;;;;24.75;18.23;;;;;;;7.75;100.00;92862.03;2585553;22;20024;-84
2023/05/14 04:13:56;;;;;;;21.05;17.88;;;;;;;7.73;100.00;92866.25;2595860;22;20063;-87
2023/05/14 04:15:06;;;;;;;23.40;16.33;;;;;;;7.74;100.00;92857.13;2596976;22;20003;-85
2023/05/14 04:16:16;;;;;;;22.63;16.45;;;;;;;7.76;100.00;92860.13;2598696;22;20007;-85
2023/05/14 04:17:25;;;;;;;20.15;15.57;;;;;;;7.79;100.00;92856.66;2607194;22;20003;-83
2023/05/14 04:18:34;;;;;;;21.80;16.17;;;;;;;7.79;100.00;92856.66;2596525;22;20007;-84
2023/05/14 04:19:45;;;;;;;20.23;16.65;;;;;;;7.80;100.00;92863.47;2585580;22;20506;-86
2023/05/14 04:20:50;;;;;;;20.45;15.98;;;;;;;7.80;100.00;92861.56;2586462;22;20012;-87
2023/05/14 04:22:02;;;;;;;21.63;16.48;;;;;;;7.83;100.00;92860.78;2584062;22;20000;-86
2023/05/14 04:23:13;;;;;;;21.95;15.20;;;;;;;7.85;100.00;92865.69;2586949;22;20027;-84
2023/05/14 04:24:19;;;;;;;19.77;16.70;;;;;;;7.83;100.00;92858.09;2598686;22;20418;-88
2023/05/14 04:25:29;;;;;;;21.98;16.83;;;;;;;7.85;100.00;92855.03;2595956;22;20015;-86
2023/05/14 04:26:42;;;;;;;26.27;17.88;;;;;;;7.87;100.00;92859.97;2598622;22;20008;-87
2023/05/14 04:27:52;;;;;;;21.65;16.80;;;;;;;7.82;100.00;92855.84;2610239;22;20000;-86
2023/05/14 04:29:02;;;;;;;25.75;18.17;;;;;;;7.84;100.00;92861.53;2607458;22;20007;-86
2023/05/14 04:30:11;;;;;;;26.15;20.60;;;;;;;7.84;100.00;92861.53;2598701;22;20319;-86
2023/05/14 04:31:30;;;;;;;24.13;17.17;;;;;;;7.83;100.00;92855.44;2597099;22;20075;-85
2023/05/14 04:32:39;;;;;;;26.17;17.23;;;;;;;7.84;100.00;92856.19;2601797;22;20438;-84
2023/05/14 04:33:52;;;;;;;24.75;17.25;;;;;;;7.85;100.00;92857.69;2609295;22;19999;-85
2023/05/14 04:35:07;;;;;;;26.98;17.90;;;;;;;7.85;100.00;92848.97;2607800;22;20018;-85
2023/05/14 04:36:16;;;;;;;23.77;17.33;;;;;;;7.92;100.00;92859.50;2600932;22;20062;-86
2023/05/14 04:37:24;;;;;;;21.92;17.58;;;;;;;7.95;100.00;92862.13;2596476;22;20101;-83
2023/05/14 04:38:34;;;;;;;23.27;16.42;;;;;;;7.99;100.00;92862.03;2585336;22;20012;-86
2023/05/14 04:39:43;;;;;;;22.92;16.13;;;;;;;7.95;100.00;92859.44;2585903;22;20076;-86
2023/05/14 04:40:51;;;;;;;26.17;17.90;;;;;;;7.92;100.00;92851.53;2597695;22;20004;-87
2023/05/14 04:41:55;;;;;;;26.45;17.50;;;;;;;7.90;100.00;92864.47;2607175;22;20003;-87
2023/05/14 04:43:05;;;;;;;23.60;17.10;;;;;;;7.90;100.00;92859.91;2595746;22;20310;-86
2023/05/14 04:44:17;;;;;;;24.17;17.70;;;;;;;7.92;100.00;92857.59;2598134;22;20008;-86
2023/05/14 04:45:27;;;;;;;22.30;17.08;;;;;;;7.92;100.00;92857.59;2597299;22;20452;-87
2023/05/14 04:46:35;;;;;;;;;;;;;;;7.93;100.00;92861.00;2597337;22;20007;-88
2023/05/14 04:47:54;;;;;;;22.98;15.77;;;;;;;7.92;100.00;92862.91;2610496;22;20017;-84
2023/05/14 04:49:08;;;;;;;24.05;16.50;;;;;;;7.87;100.00;92860.72;2607679;22;19999;-86
2023/05/14 04:50:13;;;;;;;23.02;17.13;;;;;;;7.88;100.00;92856.91;2587514;22;20091;-85
2023/05/14 04:51:23;;;;;;;22.00;16.35;;;;;;;7.93;100.00;92861.00;2584362;22;20004;-85
2023/05/14 04:52:31;;;;;;;21.88;17.30;;;;;;;7.91;100.00;92866.75;2585861;22;20087;-87
2023/05/14 04:53:55;;;;;;;22.98;16.70;;;;;;;7.94;100.00;92862.50;2598328;22;20504;-88
2023/05/14 04:55:03;;;;;;;22.73;16.75;;;;;;;7.95;100.00;92862.13;2599629;22;20007;-86
2023/05/14 04:56:11;;;;;;;24.63;18.10;;;;;;;7.95;100.00;92864.78;2596187;22;20345;-86
2023/05/14 04:57:20;;;;;;;24.55;17.83;;;;;;;7.98;100.00;92858.63;2585378;22;20454;-88
2023/05/14 04:58:31;;;;;;;22.30;16.70;;;;;;;7.99;100.00;92860.16;2585811;22;20396;-86
2023/05/14 04:59:40;;;;;;;26.48;18.30;;;;;;;8.07;100.00;92864.19;2586197;22;20083;-86
2023/05/14 05:00:48;;;;;;;25.20;18.33;;;;;;;8.02;100.00;92866.56;2585297;22;20008;-86
2023/05/14 05:01:56;;;;;;;26.85;17.77;;;;;;;8.02;100.00;92858.56;2585213;22;20008;-88
2023/05/14 05:03:04;;;;;;;25.80;18.42;;;;;;;7.95;100.00;92872.75;2597872;22;20079;-86
2023/05/14 05:04:12;;;;;;;26.98;19.05;;;;;;;7.97;100.00;92864.34;2595959;22;20007;-87
2023/05/14 05:05:19;;;;;;;22.48;17.20;;;;;;;7.93;100.00;92856.44;2585263;22;20032;-85
2023/05/14 05:06:25;;;;;;;40.72;18.63;;;;;;;7.94;100.00;92862.50;2584384;22;20163;-87
2023/05/14 05:07:35;;;;;;;24.60;17.92;;;;;;;7.91;100.00;92866.00;2584490;22;20004;-87
2023/05/14 05:08:45;;;;;;;27.23;18.05;;;;;;;7.93;100.00;92855.69;2609596;22;20439;-87
2023/05/14 05:09:52;;;;;;;22.88;17.05;;;;;;;7.91;100.00;92868.66;2607147;22;20010;-87
2023/05/14 05:11:01;;;;;;;23.23;18.05;;;;;;;7.91;100.00;92858.75;2597291;22;19996;-85
2023/05/14 05:12:11;;;;;;;23.02;18.30;;;;;;;7.91;100.00;92858.00;2596722;22;20008;-88
2023/05/14 05:13:21;;;;;;;24.10;18.52;;;;;;;7.84;100.00;92864.19;2598590;22;20011;-87
2023/05/14 05:14:28;;;;;;;22.75;17.75;;;;;;;7.85;100.00;92863.00;2609276;22;20089;-87
2023/05/14 05:15:38;;;;;;;27.02;18.30;;;;;;;7.85;100.00;92862.25;2609173;22;20054;-86
2023/05/14 05:16:45;;;;;;;25.45;17.45;;;;;;;7.88;100.00;92862.22;2596899;22;20371;-86
2023/05/14 05:17:54;;;;;;;25.20;17.75;;;;;;;7.92;100.00;92865.56;2610097;22;20011;-86
2023/05/14 05:19:03;;;;;;;22.50;17.80;;;;;;;7.90;100.00;92859.91;2607530;22;19999;-86
2023/05/14 05:20:10;;;;;;;24.35;17.40;;;;;;;7.93;100.00;92855.69;2596047;22;20023;-85
2023/05/14 05:21:20;;;;;;;22.67;17.17;;;;;;;7.94;100.00;92857.94;2597620;22;20042;-86
2023/05/14 05:22:29;;;;;;;25.65;16.98;;;;;;;8.02;100.00;92855.91;2596653;22;20646;-86
2023/05/14 05:23:40;;;;;;;29.98;18.50;;;;;;;7.99;100.00;92860.16;2609018;22;20006;-85
2023/05/14 05:24:49;;;;;;;26.25;18.35;;;;;;;8.07;100.00;92861.50;2596718;22;20030;-87
2023/05/14 05:25:57;;;;;;;23.70;17.77;;;;;;;8.07;100.00;92861.50;2585559;22;20011;-88
2023/05/14 05:27:05;;;;;;;21.80;17.58;;;;;;;8.07;100.00;92850.88;2596386;22;20516;-88
2023/05/14 05:28:13;;;;;;;25.70;18.08;;;;;;;8.03;100.00;92857.41;2608680;22;20027;-85
2023/05/14 05:29:20;;;;;;;27.58;18.77;;;;;;;7.98;100.00;92853.31;2595809;22;20000;-87
2023/05/14 05:30:29;;;;;;;26.15;19.48;;;;;;;7.96;100.00;92865.53;2584377;22;20004;-88
2023/05/14 05:31:37;;;;;;;26.10;19.45;;;;;;;7.95;100.00;92853.38;2584982;22;20004;-86
2023/05/14 05:32:42;;;;;;;26.17;18.90;;;;;;;8.00;100.00;92855.56;2584537;22;20000;-85
2023/05/14 05:33:51;;;;;;;26.10;18.98;;;;;;;7.96;100.00;92858.28;2583567;22;20097;-87
2023/05/14 05:35:00;;;;;;;26.42;18.88;;;;;;;7.96;100.00;92866.28;2595464;22;20437;-87
2023/05/14 05:36:10;;;;;;;33.75;19.55;;;;;;;7.98;100.00;92863.94;2606920;22;20003;-86
2023/05/14 05:37:20;;;;;;;26.00;18.63;;;;;;;8.14;100.00;92862.56;2598581;22;20425;-85